createdAt,value
2017-06-26T00:01:37.454Z,6.87
2017-06-26T00:04:03.724Z,6.90
2017-06-26T00:06:29.994Z,7.70
2017-06-26T00:08:56.265Z,6.93
2017-06-26T00:11:22.561Z,7.33
2017-06-26T00:13:50.021Z,7.03
2017-06-26T00:16:16.310Z,7.30
2017-06-26T00:18:42.581Z,7.50
2017-06-26T00:21:08.862Z,7.03
2017-06-26T00:23:35.145Z,7.83
2017-06-26T00:26:02.553Z,6.93
2017-06-26T00:28:28.845Z,6.13
2017-06-26T00:30:55.118Z,6.10
2017-06-26T00:33:21.398Z,6.97
2017-06-26T00:35:47.657Z,7.17
2017-06-26T00:38:15.046Z,7.10
2017-06-26T00:40:41.339Z,6.90
2017-06-26T00:43:07.649Z,7.37
2017-06-26T00:45:33.963Z,6.83
2017-06-26T00:48:00.305Z,7.20
2017-06-26T00:50:26.897Z,7.80
2017-06-26T00:52:53.174Z,7.47
2017-06-26T00:55:19.441Z,6.90
2017-06-26T00:57:46.481Z,8.20
2017-06-26T01:00:13.497Z,6.87
2017-06-26T01:02:40.097Z,7.37
2017-06-26T01:05:06.377Z,7.73
2017-06-26T01:07:32.709Z,6.73
2017-06-26T01:09:58.993Z,7.67
2017-06-26T01:12:26.294Z,7.20
2017-06-26T01:14:52.894Z,7.80
2017-06-26T01:17:19.160Z,7.77
2017-06-26T01:19:46.489Z,7.10
2017-06-26T01:22:12.752Z,7.50
2017-06-26T01:24:39.767Z,7.50
2017-06-26T01:27:06.353Z,7.13
2017-06-26T01:29:32.633Z,7.30
2017-06-26T01:31:58.939Z,7.17
2017-06-26T01:34:25.274Z,7.20
2017-06-26T01:36:51.553Z,6.07
2017-06-26T01:39:19.128Z,6.37
2017-06-26T01:41:45.433Z,6.87
2017-06-26T01:44:11.750Z,6.43
2017-06-26T01:46:38.046Z,7.00
2017-06-26T01:49:04.346Z,6.70
2017-06-26T01:51:30.989Z,7.23
2017-06-26T01:53:57.329Z,7.30
2017-06-26T01:56:23.682Z,6.47
2017-06-26T01:58:49.966Z,6.97
2017-06-26T02:01:16.277Z,6.80
2017-06-26T02:03:43.800Z,6.30
2017-06-26T02:06:10.078Z,6.70
2017-06-26T02:08:36.370Z,6.03
2017-06-26T02:11:02.638Z,6.80
2017-06-26T02:13:28.909Z,6.73
2017-06-26T02:15:55.189Z,7.03
2017-06-26T02:18:22.626Z,6.50
2017-06-26T02:20:48.906Z,6.47
2017-06-26T02:23:15.187Z,7.60
2017-06-26T02:25:41.482Z,6.40
2017-06-26T02:28:07.758Z,7.10
2017-06-26T02:30:36.073Z,6.83
2017-06-26T02:33:02.377Z,6.97
2017-06-26T02:35:29.024Z,8.10
2017-06-26T02:37:55.300Z,7.63
2017-06-26T02:40:21.581Z,8.00
2017-06-26T02:42:47.877Z,7.27
2017-06-26T02:45:14.161Z,7.43
2017-06-26T02:47:41.498Z,7.50
2017-06-26T02:50:07.798Z,6.90
2017-06-26T02:52:34.073Z,7.33
2017-06-26T02:55:00.354Z,7.97
2017-06-26T02:57:26.635Z,7.20
2017-06-26T02:59:53.353Z,7.77
2017-06-26T03:02:19.646Z,7.67
2017-06-26T03:04:45.946Z,7.57
2017-06-26T03:07:12.233Z,7.07
2017-06-26T03:09:39.253Z,6.37
2017-06-26T03:12:06.649Z,7.00
2017-06-26T03:14:32.929Z,7.37
2017-06-26T03:16:59.210Z,7.50
2017-06-26T03:19:25.489Z,6.40
2017-06-26T03:21:51.754Z,6.80
2017-06-26T03:24:18.411Z,7.60
2017-06-26T03:26:44.682Z,8.10
2017-06-26T03:29:10.965Z,6.60
2017-06-26T03:31:37.246Z,6.53
2017-06-26T03:34:03.525Z,7.30
2017-06-26T03:36:31.006Z,6.93
2017-06-26T03:38:57.293Z,7.13
2017-06-26T03:41:23.648Z,6.57
2017-06-26T03:43:49.941Z,6.77
2017-06-26T03:46:16.233Z,7.20
2017-06-26T03:48:43.571Z,6.83
2017-06-26T03:51:09.849Z,7.47
2017-06-26T03:53:36.880Z,7.73
2017-06-26T03:56:03.959Z,8.10
2017-06-26T03:58:30.249Z,8.70
2017-06-26T04:00:56.929Z,8.70
2017-06-26T04:03:23.210Z,8.33
2017-06-26T04:05:49.481Z,8.67
2017-06-26T04:08:15.806Z,8.87
2017-06-26T04:10:43.833Z,8.13
2017-06-26T04:13:11.397Z,8.37
2017-06-26T04:15:37.674Z,8.10
2017-06-26T04:18:03.929Z,8.50
2017-06-26T04:20:30.201Z,8.50
2017-06-26T04:22:56.478Z,7.80
2017-06-26T04:25:23.100Z,9.10
2017-06-26T04:27:49.369Z,8.47
2017-06-26T04:30:15.657Z,8.40
2017-06-26T04:32:41.929Z,9.63
2017-06-26T04:35:08.208Z,7.93
2017-06-26T04:37:36.590Z,8.63
2017-06-26T04:40:02.952Z,7.63
2017-06-26T04:42:29.696Z,8.17
2017-06-26T04:44:55.970Z,8.50
2017-06-26T04:47:22.277Z,7.90
2017-06-26T04:49:48.545Z,8.37
2017-06-26T04:52:15.856Z,7.70
2017-06-26T04:54:42.133Z,7.27
2017-06-26T04:57:08.470Z,7.40
2017-06-26T04:59:35.085Z,6.77
2017-06-26T05:02:02.100Z,6.83
2017-06-26T05:04:28.376Z,7.30
2017-06-26T05:06:54.642Z,7.47
2017-06-26T05:09:20.926Z,7.03
2017-06-26T05:11:47.565Z,7.40
2017-06-26T05:14:13.829Z,7.30
2017-06-26T05:16:40.090Z,7.10
2017-06-26T05:19:06.360Z,7.30
2017-06-26T05:21:32.621Z,7.50
2017-06-26T05:23:59.209Z,7.10
2017-06-26T05:26:27.226Z,6.30
2017-06-26T05:28:53.489Z,8.63
2017-06-26T05:31:20.497Z,6.60
2017-06-26T05:33:46.769Z,6.67
2017-06-26T05:36:14.111Z,7.13
2017-06-26T05:38:40.384Z,6.83
2017-06-26T05:41:06.641Z,6.90
2017-06-26T05:43:32.902Z,7.10
2017-06-26T05:45:59.205Z,7.00
2017-06-26T05:48:26.628Z,5.53
2017-06-26T05:50:52.906Z,6.87
2017-06-26T05:53:19.161Z,6.67
2017-06-26T05:55:45.432Z,6.07
2017-06-26T05:58:11.701Z,6.77
2017-06-26T06:00:39.384Z,5.90
2017-06-26T06:03:06.400Z,5.73
2017-06-26T06:05:32.677Z,5.80
2017-06-26T06:07:58.950Z,5.40
2017-06-26T06:10:25.219Z,6.30
2017-06-26T06:12:51.858Z,5.80
2017-06-26T06:15:18.125Z,5.50
2017-06-26T06:17:44.395Z,6.10
2017-06-26T06:20:10.669Z,5.13
2017-06-26T06:22:36.930Z,5.37
2017-06-26T06:25:03.505Z,5.47
2017-06-26T06:27:29.793Z,4.83
2017-06-26T06:29:56.986Z,5.20
2017-06-26T06:32:23.257Z,5.47
2017-06-26T06:34:50.553Z,5.60
2017-06-26T06:37:18.677Z,5.80
2017-06-26T06:39:44.935Z,4.90
2017-06-26T06:42:11.200Z,4.70
2017-06-26T06:44:37.461Z,3.63
2017-06-26T06:47:03.730Z,4.30
2017-06-26T06:49:31.241Z,4.57
2017-06-26T06:51:57.510Z,3.90
2017-06-26T06:54:23.769Z,3.87
2017-06-26T06:56:50.045Z,3.57
2017-06-26T06:59:16.305Z,3.57
2017-06-26T07:01:43.717Z,3.97
2017-06-26T07:04:10.009Z,3.97
2017-06-26T07:06:37.049Z,3.93
2017-06-26T07:09:05.085Z,3.53
2017-06-26T07:11:31.352Z,3.37
2017-06-26T07:13:57.893Z,3.47
2017-06-26T07:16:24.157Z,3.70
2017-06-26T07:18:51.462Z,3.30
2017-06-26T07:21:18.533Z,3.00
2017-06-26T07:23:44.800Z,3.77
2017-06-26T07:26:12.116Z,3.73
2017-06-26T07:28:38.381Z,3.63
2017-06-26T07:31:04.637Z,3.00
2017-06-26T07:33:30.903Z,3.40
2017-06-26T07:35:57.285Z,3.90
2017-06-26T07:38:23.538Z,3.83
2017-06-26T07:40:50.898Z,3.40
2017-06-26T07:43:17.896Z,4.00
2017-06-26T07:45:44.174Z,3.83
2017-06-26T07:48:10.438Z,3.17
2017-06-26T07:50:36.700Z,3.17
2017-06-26T07:53:03.365Z,3.47
2017-06-26T07:55:31.381Z,3.90
2017-06-26T07:57:57.652Z,3.50
2017-06-26T08:00:24.663Z,3.67
2017-06-26T08:02:50.930Z,3.40
2017-06-26T08:05:18.249Z,4.67
2017-06-26T08:07:44.522Z,3.50
2017-06-26T08:10:10.782Z,4.57
2017-06-26T08:12:37.055Z,3.07
2017-06-26T08:15:03.341Z,3.43
2017-06-26T08:17:29.938Z,3.00
2017-06-26T08:19:56.942Z,3.60
2017-06-26T08:22:23.228Z,3.63
2017-06-26T08:24:49.501Z,3.43
2017-06-26T08:27:15.760Z,3.10
2017-06-26T08:29:42.417Z,3.50
2017-06-26T08:32:09.417Z,3.20
2017-06-26T08:34:35.673Z,3.47
2017-06-26T08:37:02.679Z,3.33
2017-06-26T08:39:28.945Z,3.77
2017-06-26T08:41:55.603Z,3.93
2017-06-26T08:44:22.608Z,3.00
2017-06-26T08:46:48.889Z,3.10
2017-06-26T08:49:15.149Z,3.70
2017-06-26T08:51:41.408Z,3.87
2017-06-26T08:54:07.961Z,3.33
2017-06-26T08:56:34.953Z,3.53
2017-06-26T08:59:01.239Z,3.20
2017-06-26T09:01:27.503Z,3.20
2017-06-26T09:03:53.758Z,3.90
2017-06-26T09:06:20.334Z,3.20
2017-06-26T09:08:47.333Z,3.50
2017-06-26T09:11:13.583Z,3.57
2017-06-26T09:13:39.841Z,3.47
2017-06-26T09:16:06.110Z,3.20
2017-06-26T09:18:33.421Z,3.63
2017-06-26T09:21:00.424Z,4.17
2017-06-26T09:23:26.685Z,3.97
2017-06-26T09:25:53.717Z,2.90
2017-06-26T09:28:19.966Z,3.07
2017-06-26T09:30:46.601Z,3.20
2017-06-26T09:33:13.606Z,3.67
2017-06-26T09:35:39.870Z,3.40
2017-06-26T09:38:06.878Z,4.13
2017-06-26T09:40:33.140Z,4.00
2017-06-26T09:43:01.530Z,3.27
2017-06-26T09:45:28.550Z,3.40
2017-06-26T09:47:54.849Z,4.13
2017-06-26T09:50:21.109Z,3.43
2017-06-26T09:52:47.405Z,3.40
2017-06-26T09:55:14.002Z,3.60
2017-06-26T09:57:40.272Z,3.23
2017-06-26T10:00:06.537Z,3.40
2017-06-26T10:02:32.802Z,3.17
2017-06-26T10:04:59.065Z,3.50
2017-06-26T10:07:26.679Z,3.80
2017-06-26T10:09:52.957Z,3.30
2017-06-26T10:12:19.237Z,3.63
2017-06-26T10:14:46.241Z,3.30
2017-06-26T10:17:12.497Z,2.63
2017-06-26T10:19:39.145Z,3.67
2017-06-26T10:22:06.150Z,3.07
2017-06-26T10:24:32.409Z,4.10
2017-06-26T10:26:59.055Z,3.40
2017-06-26T10:29:26.076Z,4.20
2017-06-26T10:31:52.338Z,3.13
2017-06-26T10:34:18.599Z,3.33
2017-06-26T10:36:45.901Z,3.00
2017-06-26T10:39:14.058Z,3.27
2017-06-26T10:41:40.324Z,3.50
2017-06-26T10:44:06.586Z,3.20
2017-06-26T10:46:32.858Z,3.30
2017-06-26T10:48:59.865Z,3.20
2017-06-26T10:51:26.552Z,2.80
2017-06-26T10:53:53.552Z,3.20
2017-06-26T10:56:19.801Z,3.27
2017-06-26T10:58:46.066Z,3.30
2017-06-26T11:01:12.341Z,3.23
2017-06-26T11:03:38.922Z,3.00
2017-06-26T11:06:05.924Z,3.30
2017-06-26T11:08:32.193Z,3.50
2017-06-26T11:10:59.184Z,3.57
2017-06-26T11:13:25.434Z,2.90
2017-06-26T11:15:52.930Z,2.97
2017-06-26T11:18:19.937Z,3.07
2017-06-26T11:20:46.206Z,3.63
2017-06-26T11:23:13.222Z,3.00
2017-06-26T11:25:39.484Z,3.10
2017-06-26T11:28:06.120Z,3.27
2017-06-26T11:30:32.386Z,2.73
2017-06-26T11:32:58.649Z,2.37
2017-06-26T11:35:24.913Z,2.87
2017-06-26T11:37:51.181Z,2.20
2017-06-26T11:40:17.766Z,2.60
2017-06-26T11:42:44.053Z,3.07
2017-06-26T11:45:10.317Z,2.80
2017-06-26T11:47:37.321Z,2.60
2017-06-26T11:50:04.613Z,2.70
2017-06-26T11:52:31.965Z,2.70
2017-06-26T11:54:58.989Z,2.80
2017-06-26T11:57:25.280Z,2.50
2017-06-26T11:59:51.565Z,2.27
2017-06-26T12:02:17.846Z,2.10
2017-06-26T12:04:45.337Z,2.50
2017-06-26T12:07:11.602Z,2.00
2017-06-26T12:09:37.864Z,2.57
2017-06-26T12:12:04.133Z,2.00
2017-06-26T12:14:30.385Z,2.07
2017-06-26T12:16:57.017Z,2.27
2017-06-26T12:19:24.021Z,2.33
2017-06-26T12:21:50.286Z,1.80
2017-06-26T12:24:16.556Z,2.00
2017-06-26T12:26:42.837Z,2.50
2017-06-26T12:29:09.584Z,2.87
2017-06-26T12:31:36.588Z,2.80
2017-06-26T12:34:02.865Z,2.17
2017-06-26T12:36:29.877Z,2.10
2017-06-26T12:38:56.141Z,2.00
2017-06-26T12:41:22.777Z,1.90
2017-06-26T12:43:49.024Z,1.60
2017-06-26T12:46:15.293Z,1.80
2017-06-26T12:48:42.589Z,1.70
2017-06-26T12:51:08.858Z,2.10
2017-06-26T12:53:36.178Z,2.20
2017-06-26T12:56:02.474Z,1.73
2017-06-26T12:58:28.749Z,1.67
2017-06-26T13:00:55.010Z,1.60
2017-06-26T13:03:21.291Z,1.80
2017-06-26T13:05:48.649Z,1.60
2017-06-26T13:08:14.907Z,1.93
2017-06-26T13:10:41.165Z,1.57
2017-06-26T13:13:08.557Z,1.60
2017-06-26T13:15:34.805Z,1.50
2017-06-26T13:18:01.057Z,1.57
2017-06-26T13:20:27.313Z,1.67
2017-06-26T13:22:54.337Z,1.73
2017-06-26T13:25:20.898Z,1.63
2017-06-26T13:27:47.165Z,1.30
2017-06-26T13:30:13.421Z,1.97
2017-06-26T13:32:39.682Z,1.57
2017-06-26T13:35:06.690Z,1.50
2017-06-26T13:37:34.009Z,1.70
2017-06-26T13:40:00.269Z,1.13
2017-06-26T13:42:26.530Z,1.50
2017-06-26T13:44:52.820Z,1.63
2017-06-26T13:47:19.076Z,1.70
2017-06-26T13:49:46.576Z,1.17
2017-06-26T13:52:12.864Z,1.37
2017-06-26T13:54:39.129Z,1.30
2017-06-26T13:57:06.142Z,1.40
2017-06-26T13:59:32.410Z,1.43
2017-06-26T14:01:58.997Z,1.80
2017-06-26T14:04:25.275Z,1.40
2017-06-26T14:06:51.561Z,1.60
2017-06-26T14:09:17.822Z,1.40
2017-06-26T14:11:44.825Z,1.50
2017-06-26T14:14:11.402Z,1.20
2017-06-26T14:16:37.676Z,1.30
2017-06-26T14:19:03.929Z,1.10
2017-06-26T14:21:30.209Z,1.20
2017-06-26T14:23:56.496Z,1.43
2017-06-26T14:26:23.821Z,1.17
2017-06-26T14:28:50.083Z,0.90
2017-06-26T14:31:16.345Z,1.33
2017-06-26T14:33:42.598Z,1.40
2017-06-26T14:36:08.862Z,1.30
2017-06-26T14:38:36.353Z,1.30
2017-06-26T14:41:02.621Z,1.00
2017-06-26T14:43:28.886Z,1.13
2017-06-26T14:45:55.156Z,0.90
2017-06-26T14:48:21.449Z,0.90
2017-06-26T14:50:47.977Z,1.10
2017-06-26T14:53:14.248Z,0.83
2017-06-26T14:55:40.500Z,0.70
2017-06-26T14:58:06.774Z,0.83
2017-06-26T15:00:33.074Z,0.83
2017-06-26T15:03:00.601Z,0.90
2017-06-26T15:05:26.866Z,0.90
2017-06-26T15:07:53.141Z,1.00
2017-06-26T15:10:19.406Z,1.13
2017-06-26T15:12:45.669Z,1.00
2017-06-26T15:15:12.985Z,1.00
2017-06-26T15:17:39.253Z,0.90
2017-06-26T15:20:05.534Z,1.30
2017-06-26T15:22:31.796Z,1.20
2017-06-26T15:24:58.057Z,1.00
2017-06-26T15:27:25.401Z,1.00
2017-06-26T15:29:51.666Z,1.10
2017-06-26T15:32:17.929Z,1.20
2017-06-26T15:34:44.189Z,1.10
2017-06-26T15:37:11.189Z,1.10
2017-06-26T15:39:37.761Z,1.50
2017-06-26T15:42:04.765Z,1.30
2017-06-26T15:44:31.032Z,1.20
2017-06-26T15:46:57.281Z,1.30
2017-06-26T15:49:23.549Z,1.00
2017-06-26T15:51:49.833Z,1.13
2017-06-26T15:54:17.190Z,1.33
2017-06-26T15:56:43.481Z,1.10
2017-06-26T15:59:09.765Z,1.10
2017-06-26T16:01:36.030Z,1.20
2017-06-26T16:04:02.306Z,1.00
2017-06-26T16:06:29.717Z,1.13
2017-06-26T16:08:55.989Z,1.20
2017-06-26T16:11:22.277Z,1.30
2017-06-26T16:13:48.550Z,1.57
2017-06-26T16:16:14.813Z,1.30
2017-06-26T16:18:41.413Z,1.63
2017-06-26T16:21:07.679Z,1.30
2017-06-26T16:23:33.954Z,1.40
2017-06-26T16:26:00.990Z,1.73
2017-06-26T16:28:27.286Z,1.33
2017-06-26T16:30:53.881Z,1.33
2017-06-26T16:33:20.154Z,1.40
2017-06-26T16:35:46.425Z,1.20
2017-06-26T16:38:12.709Z,1.20
2017-06-26T16:40:38.978Z,1.37
2017-06-26T16:43:06.353Z,1.43
2017-06-26T16:45:32.633Z,1.50
2017-06-26T16:47:58.925Z,1.57
2017-06-26T16:50:25.201Z,1.53
2017-06-26T16:52:51.471Z,1.30
2017-06-26T16:55:18.788Z,1.70
2017-06-26T16:57:45.062Z,1.90
2017-06-26T17:00:11.338Z,1.57
2017-06-26T17:02:37.599Z,1.37
2017-06-26T17:05:04.605Z,1.50
2017-06-26T17:07:31.290Z,1.57
2017-06-26T17:09:58.291Z,1.33
2017-06-26T17:12:24.561Z,1.33
2017-06-26T17:14:51.557Z,1.47
2017-06-26T17:17:17.825Z,1.67
2017-06-26T17:19:44.477Z,1.50
2017-06-26T17:22:10.794Z,1.70
2017-06-26T17:24:38.817Z,1.70
2017-06-26T17:27:05.086Z,2.00
2017-06-26T17:29:32.365Z,2.03
2017-06-26T17:32:00.009Z,2.13
2017-06-26T17:34:26.276Z,2.37
2017-06-26T17:36:52.545Z,2.50
2017-06-26T17:39:18.820Z,2.23
2017-06-26T17:41:45.085Z,2.13
2017-06-26T17:44:11.662Z,2.43
2017-06-26T17:46:37.917Z,2.10
2017-06-26T17:49:04.177Z,2.10
2017-06-26T17:51:30.440Z,2.43
2017-06-26T17:53:56.861Z,1.93
2017-06-26T17:56:24.213Z,2.80
2017-06-26T17:58:50.508Z,2.37
2017-06-26T18:01:16.777Z,2.80
2017-06-26T18:03:43.034Z,2.90
2017-06-26T18:06:09.299Z,2.87
2017-06-26T18:08:35.921Z,2.20
2017-06-26T18:11:02.178Z,2.90
2017-06-26T18:13:28.445Z,2.43
2017-06-26T18:15:56.332Z,1.87
2017-06-26T18:18:23.619Z,2.33
2017-06-26T18:20:50.207Z,2.27
2017-06-26T18:23:16.474Z,1.90
2017-06-26T18:25:42.754Z,2.30
2017-06-26T18:28:09.761Z,1.90
2017-06-26T18:30:36.025Z,2.50
2017-06-26T18:33:03.317Z,1.97
2017-06-26T18:35:29.592Z,2.17
2017-06-26T18:37:55.876Z,2.20
2017-06-26T18:40:22.482Z,2.20
2017-06-26T18:42:48.751Z,2.30
2017-06-26T18:45:15.033Z,2.30
2017-06-26T18:47:42.054Z,2.50
2017-06-26T18:50:08.314Z,2.17
2017-06-26T18:52:34.948Z,1.80
2017-06-26T18:55:01.986Z,2.23
2017-06-26T18:57:29.850Z,2.47
2017-06-26T18:59:56.858Z,2.57
2017-06-26T19:02:23.133Z,2.07
2017-06-26T19:04:50.501Z,2.07
2017-06-26T19:07:16.809Z,1.93
2017-06-26T19:09:43.832Z,2.60
2017-06-26T19:12:10.089Z,2.03
2017-06-26T19:14:37.341Z,2.30
2017-06-26T19:17:04.429Z,2.23
2017-06-26T19:19:31.498Z,2.20
2017-06-26T19:21:57.764Z,2.27
2017-06-26T19:24:24.037Z,3.07
2017-06-26T19:26:50.311Z,1.90
2017-06-26T19:29:16.969Z,2.47
2017-06-26T19:31:43.981Z,3.90
2017-06-26T19:34:10.801Z,4.13
2017-06-26T19:36:37.089Z,3.17
2017-06-26T19:39:03.386Z,2.63
2017-06-26T19:41:30.695Z,3.33
2017-06-26T19:43:57.108Z,3.60
2017-06-26T19:46:23.398Z,2.83
2017-06-26T19:48:49.691Z,2.50
2017-06-26T19:51:16.063Z,2.60
2017-06-26T19:53:44.344Z,3.13
2017-06-26T19:56:10.614Z,4.43
2017-06-26T19:58:37.041Z,3.10
2017-06-26T20:01:03.342Z,2.83
2017-06-26T20:03:30.359Z,2.30
2017-06-26T20:05:57.697Z,2.20
2017-06-26T20:08:23.970Z,2.47
2017-06-26T20:10:50.999Z,3.70
2017-06-26T20:13:17.337Z,2.83
2017-06-26T20:15:44.385Z,2.77
2017-06-26T20:18:10.937Z,2.60
2017-06-26T20:20:37.937Z,2.93
2017-06-26T20:23:04.217Z,3.00
2017-06-26T20:25:31.265Z,2.77
2017-06-26T20:27:58.271Z,2.80
2017-06-26T20:30:25.655Z,2.47
2017-06-26T20:32:52.668Z,2.70
2017-06-26T20:35:18.921Z,2.83
2017-06-26T20:37:45.916Z,2.40
2017-06-26T20:40:12.186Z,2.83
2017-06-26T20:42:38.728Z,2.40
2017-06-26T20:45:05.002Z,3.03
2017-06-26T20:47:31.265Z,3.03
2017-06-26T20:49:57.528Z,2.03
2017-06-26T20:52:24.530Z,3.17
2017-06-26T20:54:51.136Z,2.87
2017-06-26T20:57:17.392Z,2.70
2017-06-26T20:59:43.649Z,3.10
2017-06-26T21:02:09.932Z,3.07
2017-06-26T21:04:37.236Z,2.83
2017-06-26T21:07:04.813Z,2.63
2017-06-26T21:09:31.096Z,3.17
2017-06-26T21:11:57.364Z,2.10
2017-06-26T21:14:23.633Z,3.13
2017-06-26T21:16:49.901Z,2.27
2017-06-26T21:19:16.582Z,2.70
2017-06-26T21:21:42.849Z,2.90
2017-06-26T21:24:09.108Z,2.93
2017-06-26T21:26:36.477Z,2.67
2017-06-26T21:29:03.485Z,2.70
2017-06-26T21:31:29.770Z,2.47
2017-06-26T21:33:56.390Z,2.57
2017-06-26T21:36:23.386Z,2.40
2017-06-26T21:38:49.645Z,2.17
2017-06-26T21:41:15.905Z,2.30
2017-06-26T21:43:42.185Z,2.00
2017-06-26T21:46:08.762Z,2.33
2017-06-26T21:48:35.029Z,2.00
2017-06-26T21:51:01.309Z,2.67
2017-06-26T21:53:29.361Z,2.60
2017-06-26T21:55:55.649Z,2.40
2017-06-26T21:58:22.353Z,2.33
2017-06-26T22:00:49.360Z,2.23
2017-06-26T22:03:15.628Z,2.10
2017-06-26T22:05:42.929Z,2.27
2017-06-26T22:08:09.205Z,2.23
2017-06-26T22:10:37.378Z,2.07
2017-06-26T22:13:04.377Z,2.03
2017-06-26T22:15:30.657Z,2.30
2017-06-26T22:17:57.662Z,2.37
2017-06-26T22:20:23.951Z,2.53
2017-06-26T22:22:50.570Z,2.90
2017-06-26T22:25:17.585Z,2.53
2017-06-26T22:27:43.852Z,2.50
2017-06-26T22:30:10.147Z,3.27
2017-06-26T22:32:36.405Z,2.73
2017-06-26T22:35:03.144Z,3.17
2017-06-26T22:37:29.413Z,2.73
2017-06-26T22:39:55.703Z,2.70
2017-06-26T22:42:21.974Z,2.80
2017-06-26T22:44:48.259Z,2.83
2017-06-26T22:47:14.897Z,3.30
2017-06-26T22:49:41.173Z,2.97
2017-06-26T22:52:07.453Z,2.70
2017-06-26T22:54:34.465Z,2.83
2017-06-26T22:57:00.740Z,2.40
2017-06-26T22:59:28.057Z,2.33
2017-06-26T23:01:54.341Z,2.30
2017-06-26T23:04:20.661Z,2.70
2017-06-26T23:06:46.921Z,2.17
2017-06-26T23:09:13.204Z,2.50
2017-06-26T23:11:39.770Z,2.40
2017-06-26T23:14:06.041Z,2.70
2017-06-26T23:16:32.305Z,2.50
2017-06-26T23:18:58.561Z,3.00
2017-06-26T23:21:24.832Z,2.07
2017-06-26T23:23:51.386Z,2.83
2017-06-26T23:26:17.650Z,2.37
2017-06-26T23:28:44.924Z,2.50
2017-06-26T23:31:11.223Z,2.57
2017-06-26T23:33:37.525Z,2.57
2017-06-26T23:36:04.153Z,2.40
2017-06-26T23:38:31.189Z,2.10
2017-06-26T23:40:57.460Z,2.33
2017-06-26T23:43:23.752Z,1.93
2017-06-26T23:45:50.775Z,1.80
2017-06-26T23:48:17.345Z,2.27
2017-06-26T23:50:43.609Z,1.70
2017-06-26T23:53:09.885Z,1.90
2017-06-26T23:55:37.953Z,1.90
2017-06-26T23:58:04.997Z,1.80
